createdAt,value
2023-07-11T00:06:13.592Z,1013.11
2023-07-11T00:16:13.493Z,1013.00
2023-07-11T00:26:13.340Z,1012.99
2023-07-11T00:36:13.146Z,1013.04
2023-07-11T00:46:13.019Z,1013.04
2023-07-11T00:56:12.885Z,1012.94
2023-07-11T01:06:12.753Z,1012.86
2023-07-11T01:16:12.654Z,1012.83
2023-07-11T01:26:12.473Z,1012.88
2023-07-11T01:36:12.345Z,1012.97
2023-07-11T01:46:12.287Z,1012.95
2023-07-11T01:56:12.049Z,1012.95
2023-07-11T02:06:11.978Z,1012.96
2023-07-11T02:16:11.860Z,1012.91
2023-07-11T02:26:11.663Z,1012.89
2023-07-11T02:36:11.505Z,1012.97
2023-07-11T02:46:11.419Z,1012.96
2023-07-11T02:56:11.290Z,1012.89
2023-07-11T03:06:11.148Z,1012.84
2023-07-11T03:16:11.001Z,1012.81
2023-07-11T03:26:10.852Z,1012.88
2023-07-11T03:36:10.710Z,1012.89
2023-07-11T03:46:10.743Z,1012.98
2023-07-11T03:56:10.467Z,1013.15
2023-07-11T04:06:12.916Z,1013.16
2023-07-11T04:16:10.198Z,1013.15
2023-07-11T04:26:10.014Z,1013.07
2023-07-11T04:36:09.981Z,1013.15
2023-07-11T04:46:10.077Z,1013.15
2023-07-11T04:56:09.912Z,1013.02
2023-07-11T05:06:09.949Z,1013.03
2023-07-11T05:16:09.706Z,1012.90
2023-07-11T05:26:09.419Z,1013.03
2023-07-11T05:36:09.211Z,1012.86
2023-07-11T05:46:09.179Z,1012.91
2023-07-11T05:56:09.124Z,1012.86
2023-07-11T06:06:08.862Z,1012.77
2023-07-11T06:16:08.795Z,1012.67
2023-07-11T06:26:08.579Z,1012.67
2023-07-11T06:36:08.271Z,1012.63
2023-07-11T06:46:08.155Z,1012.67
2023-07-11T06:56:08.080Z,1012.61
2023-07-11T07:06:07.859Z,1012.59
2023-07-11T07:16:07.698Z,1012.54
2023-07-11T07:26:07.559Z,1012.43
2023-07-11T07:36:07.450Z,1012.35
2023-07-11T07:46:07.398Z,1012.30
2023-07-11T07:56:07.185Z,1012.24
2023-07-11T08:06:15.326Z,1012.16
2023-07-11T08:16:15.487Z,1012.06
2023-07-11T08:26:06.846Z,1012.05
2023-07-11T08:36:06.676Z,1011.90
2023-07-11T08:46:12.724Z,1011.82
2023-07-11T08:56:06.660Z,1011.68
2023-07-11T09:06:06.551Z,1011.52
2023-07-11T09:16:06.644Z,1011.47
2023-07-11T09:26:06.201Z,1011.42
2023-07-11T09:36:06.159Z,1011.30
2023-07-11T09:46:06.214Z,1011.21
2023-07-11T09:56:12.882Z,1011.23
2023-07-11T10:06:06.088Z,1010.98
2023-07-11T10:16:05.828Z,1010.76
2023-07-11T10:26:05.579Z,1010.72
2023-07-11T10:36:05.546Z,1010.51
2023-07-11T10:46:05.405Z,1010.53
2023-07-11T10:56:05.554Z,1010.37
2023-07-11T11:06:05.008Z,1010.28
2023-07-11T11:16:04.927Z,1010.13
2023-07-11T11:26:05.030Z,1010.01
2023-07-11T11:36:05.057Z,1009.89
2023-07-11T11:56:20.203Z,1009.74
2023-07-11T12:06:04.481Z,1009.56
2023-07-11T12:16:04.262Z,1009.39
2023-07-11T12:26:04.115Z,1009.23
2023-07-11T12:36:04.024Z,1009.15
2023-07-11T12:46:03.990Z,1009.05
2023-07-11T12:56:03.855Z,1009.08
2023-07-11T13:06:16.100Z,1008.92
2023-07-11T13:16:03.736Z,1008.85
2023-07-11T13:26:03.489Z,1008.66
2023-07-11T13:46:03.326Z,1008.51
2023-07-11T13:56:03.191Z,1008.37
2023-07-11T14:06:03.143Z,1008.31
2023-07-11T14:16:02.964Z,1008.22
2023-07-11T14:26:02.821Z,1008.15
2023-07-11T14:36:02.720Z,1007.95
2023-07-11T14:46:02.599Z,1007.80
2023-07-11T14:57:14.546Z,1007.76
2023-07-11T15:33:23.375Z,1007.59
2023-07-11T15:33:28.517Z,1007.30
2023-07-11T15:43:28.373Z,1007.18
2023-07-11T15:53:28.342Z,1007.15
2023-07-11T16:03:28.213Z,1007.06
2023-07-11T16:13:28.020Z,1006.97
2023-07-11T16:23:27.914Z,1006.87
2023-07-11T16:33:27.746Z,1006.81
2023-07-11T16:43:27.628Z,1006.73
2023-07-11T16:53:30.316Z,1006.53
2023-07-11T17:03:27.438Z,1006.29
2023-07-11T17:13:27.242Z,1006.20
2023-07-11T17:23:27.091Z,1006.14
2023-07-11T17:33:27.139Z,1006.17
2023-07-11T17:43:27.456Z,1006.05
2023-07-11T17:53:26.685Z,1006.01
2023-07-11T18:03:26.814Z,1005.83
2023-07-11T18:13:26.489Z,1005.75
2023-07-11T18:23:26.311Z,1005.67
2023-07-11T18:33:27.081Z,1005.62
2023-07-11T18:43:26.127Z,1005.53
2023-07-11T18:53:25.952Z,1005.50
2023-07-11T19:03:25.853Z,1005.49
2023-07-11T19:13:25.751Z,1005.47
2023-07-11T19:23:25.528Z,1005.44
2023-07-11T19:33:25.364Z,1005.30
2023-07-11T19:43:25.258Z,1005.19
2023-07-11T19:53:25.092Z,1005.13
2023-07-11T20:03:25.082Z,1004.97
2023-07-11T20:13:24.856Z,1004.72
2023-07-11T20:23:24.747Z,1004.62
2023-07-11T20:33:24.617Z,1004.47
2023-07-11T20:43:24.522Z,1004.22
2023-07-11T20:53:24.312Z,1003.91
2023-07-11T21:03:24.179Z,1003.80
2023-07-11T21:13:24.108Z,1004.08
2023-07-11T21:23:23.981Z,1004.09
2023-07-11T21:33:23.756Z,1004.30
2023-07-11T21:43:23.685Z,1004.10
2023-07-11T21:53:23.548Z,1003.79
2023-07-11T22:03:23.403Z,1003.70
2023-07-11T22:13:23.226Z,1003.63
2023-07-11T22:23:23.198Z,1003.49
2023-07-11T22:33:22.981Z,1003.41
2023-07-11T22:43:22.862Z,1003.31
2023-07-11T22:53:22.697Z,1003.33
2023-07-11T23:03:22.570Z,1003.24
2023-07-11T23:13:22.422Z,1003.01
2023-07-11T23:23:22.266Z,1002.76
2023-07-11T23:33:22.177Z,1002.71
2023-07-11T23:43:22.039Z,1002.59
2023-07-11T23:53:21.934Z,1002.49
